sensor_id;sensor_type;location;lat;lon;timestamp;temperature;humidity
2639;DHT22;1329;51.384;7.122;2023-02-26T00:02:47;2.60;99.90
2639;DHT22;1329;51.384;7.122;2023-02-26T00:05:16;2.60;99.90
2639;DHT22;1329;51.384;7.122;2023-02-26T00:08:07;2.60;99.90
2639;DHT22;1329;51.384;7.122;2023-02-26T00:10:35;2.60;99.90
2639;DHT22;1329;51.384;7.122;2023-02-26T00:13:03;2.50;99.90
2639;DHT22;1329;51.384;7.122;2023-02-26T00:15:34;2.50;99.90
2639;DHT22;1329;51.384;7.122;2023-02-26T00:18:06;2.50;99.90
2639;DHT22;1329;51.384;7.122;2023-02-26T00:20:45;2.50;99.90
2639;DHT22;1329;51.384;7.122;2023-02-26T00:26:19;2.40;99.90
2639;DHT22;1329;51.384;7.122;2023-02-26T00:29:11;2.40;99.90
2639;DHT22;1329;51.384;7.122;2023-02-26T00:31:54;2.40;99.90
2639;DHT22;1329;51.384;7.122;2023-02-26T00:34:33;2.40;99.90
2639;DHT22;1329;51.384;7.122;2023-02-26T00:38:04;2.30;99.90
2639;DHT22;1329;51.384;7.122;2023-02-26T00:41:10;2.30;99.90
2639;DHT22;1329;51.384;7.122;2023-02-26T00:44:28;2.30;99.90
2639;DHT22;1329;51.384;7.122;2023-02-26T00:47:36;2.30;99.90
2639;DHT22;1329;51.384;7.122;2023-02-26T00:50:22;2.20;99.90
2639;DHT22;1329;51.384;7.122;2023-02-26T00:53:45;2.20;99.90
2639;DHT22;1329;51.384;7.122;2023-02-26T01:04:12;2.30;99.90
2639;DHT22;1329;51.384;7.122;2023-02-26T01:07:51;2.40;99.90
2639;DHT22;1329;51.384;7.122;2023-02-26T01:11:20;2.40;99.90
2639;DHT22;1329;51.384;7.122;2023-02-26T01:17:43;2.50;99.90
2639;DHT22;1329;51.384;7.122;2023-02-26T01:22:11;2.60;99.90
2639;DHT22;1329;51.384;7.122;2023-02-26T01:28:10;2.70;99.90
2639;DHT22;1329;51.384;7.122;2023-02-26T01:30:42;2.80;99.90
2639;DHT22;1329;51.384;7.122;2023-02-26T01:33:23;2.70;99.90
2639;DHT22;1329;51.384;7.122;2023-02-26T01:35:57;2.80;99.90
2639;DHT22;1329;51.384;7.122;2023-02-26T01:38:38;2.80;99.90
2639;DHT22;1329;51.384;7.122;2023-02-26T01:41:37;2.90;99.90
2639;DHT22;1329;51.384;7.122;2023-02-26T01:44:49;2.90;99.90
2639;DHT22;1329;51.384;7.122;2023-02-26T01:47:28;2.90;99.90
2639;DHT22;1329;51.384;7.122;2023-02-26T01:50:07;2.90;99.90
2639;DHT22;1329;51.384;7.122;2023-02-26T01:53:15;2.90;99.90
2639;DHT22;1329;51.384;7.122;2023-02-26T01:59:05;2.90;99.90
2639;DHT22;1329;51.384;7.122;2023-02-26T02:01:55;2.90;99.90
2639;DHT22;1329;51.384;7.122;2023-02-26T02:04:25;2.90;99.90
2639;DHT22;1329;51.384;7.122;2023-02-26T02:06:55;2.90;99.90
2639;DHT22;1329;51.384;7.122;2023-02-26T02:09:35;2.90;99.90
2639;DHT22;1329;51.384;7.122;2023-02-26T02:12:18;2.90;99.90
2639;DHT22;1329;51.384;7.122;2023-02-26T02:15:02;2.90;99.90
2639;DHT22;1329;51.384;7.122;2023-02-26T02:17:40;2.80;99.90
2639;DHT22;1329;51.384;7.122;2023-02-26T02:20:58;2.80;99.90
2639;DHT22;1329;51.384;7.122;2023-02-26T02:23:52;2.80;99.90
2639;DHT22;1329;51.384;7.122;2023-02-26T02:26:58;2.80;99.90
2639;DHT22;1329;51.384;7.122;2023-02-26T02:29:50;2.70;99.90
2639;DHT22;1329;51.384;7.122;2023-02-26T02:32:34;2.70;99.90
2639;DHT22;1329;51.384;7.122;2023-02-26T02:35:07;2.60;99.90
2639;DHT22;1329;51.384;7.122;2023-02-26T02:37:42;2.60;99.90
2639;DHT22;1329;51.384;7.122;2023-02-26T02:40:14;2.60;99.90
2639;DHT22;1329;51.384;7.122;2023-02-26T02:42:50;2.60;99.90
2639;DHT22;1329;51.384;7.122;2023-02-26T02:45:23;2.50;99.90
2639;DHT22;1329;51.384;7.122;2023-02-26T02:48:00;2.50;99.90
2639;DHT22;1329;51.384;7.122;2023-02-26T02:50:37;2.50;99.90
2639;DHT22;1329;51.384;7.122;2023-02-26T02:53:10;2.40;99.90
2639;DHT22;1329;51.384;7.122;2023-02-26T02:55:45;2.40;99.90
2639;DHT22;1329;51.384;7.122;2023-02-26T02:58:18;2.40;99.90
2639;DHT22;1329;51.384;7.122;2023-02-26T03:00:55;2.30;99.90
2639;DHT22;1329;51.384;7.122;2023-02-26T03:03:30;2.30;99.90
2639;DHT22;1329;51.384;7.122;2023-02-26T03:06:00;2.30;99.90
2639;DHT22;1329;51.384;7.122;2023-02-26T03:08:32;2.20;99.90
2639;DHT22;1329;51.384;7.122;2023-02-26T03:11:04;2.20;99.90
2639;DHT22;1329;51.384;7.122;2023-02-26T03:13:32;2.20;99.90
2639;DHT22;1329;51.384;7.122;2023-02-26T03:16:16;2.20;99.90
2639;DHT22;1329;51.384;7.122;2023-02-26T03:19:13;2.20;99.90
2639;DHT22;1329;51.384;7.122;2023-02-26T03:21:48;2.20;99.90
2639;DHT22;1329;51.384;7.122;2023-02-26T03:24:26;2.20;99.90
2639;DHT22;1329;51.384;7.122;2023-02-26T03:27:06;2.20;99.90
2639;DHT22;1329;51.384;7.122;2023-02-26T03:29:41;2.20;99.90
2639;DHT22;1329;51.384;7.122;2023-02-26T03:32:15;2.20;99.90
2639;DHT22;1329;51.384;7.122;2023-02-26T03:34:49;2.20;99.90
2639;DHT22;1329;51.384;7.122;2023-02-26T03:37:25;2.30;99.90
2639;DHT22;1329;51.384;7.122;2023-02-26T03:40:00;2.20;99.90
2639;DHT22;1329;51.384;7.122;2023-02-26T03:42:35;2.20;99.90
2639;DHT22;1329;51.384;7.122;2023-02-26T03:45:09;2.20;99.90
2639;DHT22;1329;51.384;7.122;2023-02-26T03:47:45;2.20;99.90
2639;DHT22;1329;51.384;7.122;2023-02-26T03:50:20;2.10;99.90
2639;DHT22;1329;51.384;7.122;2023-02-26T03:52:51;2.10;99.90
2639;DHT22;1329;51.384;7.122;2023-02-26T03:55:25;2.10;99.90
2639;DHT22;1329;51.384;7.122;2023-02-26T03:57:55;2.00;99.90
2639;DHT22;1329;51.384;7.122;2023-02-26T04:00:26;2.10;99.90
2639;DHT22;1329;51.384;7.122;2023-02-26T04:02:59;1.90;99.90
2639;DHT22;1329;51.384;7.122;2023-02-26T04:05:39;1.90;99.90
2639;DHT22;1329;51.384;7.122;2023-02-26T04:08:09;1.90;99.90
2639;DHT22;1329;51.384;7.122;2023-02-26T04:10:47;1.80;99.90
2639;DHT22;1329;51.384;7.122;2023-02-26T04:13:19;1.80;99.90
2639;DHT22;1329;51.384;7.122;2023-02-26T04:15:50;1.80;99.90
2639;DHT22;1329;51.384;7.122;2023-02-26T04:18:31;1.80;99.90
2639;DHT22;1329;51.384;7.122;2023-02-26T04:21:05;1.70;99.90
2639;DHT22;1329;51.384;7.122;2023-02-26T04:23:47;1.70;99.90
2639;DHT22;1329;51.384;7.122;2023-02-26T04:26:30;1.80;99.90
2639;DHT22;1329;51.384;7.122;2023-02-26T04:29:02;1.60;99.90
2639;DHT22;1329;51.384;7.122;2023-02-26T04:31:32;1.60;99.90
2639;DHT22;1329;51.384;7.122;2023-02-26T04:34:01;1.60;99.90
2639;DHT22;1329;51.384;7.122;2023-02-26T04:36:34;1.60;99.90
2639;DHT22;1329;51.384;7.122;2023-02-26T04:39:05;1.60;99.90
2639;DHT22;1329;51.384;7.122;2023-02-26T04:41:43;1.50;99.90
2639;DHT22;1329;51.384;7.122;2023-02-26T04:44:18;1.60;99.90
2639;DHT22;1329;51.384;7.122;2023-02-26T04:46:47;1.50;99.90
2639;DHT22;1329;51.384;7.122;2023-02-26T04:49:15;1.50;99.90
2639;DHT22;1329;51.384;7.122;2023-02-26T04:51:45;1.60;99.90
2639;DHT22;1329;51.384;7.122;2023-02-26T04:54:13;1.60;99.90
2639;DHT22;1329;51.384;7.122;2023-02-26T04:56:45;1.60;99.90
2639;DHT22;1329;51.384;7.122;2023-02-26T04:59:15;1.60;99.90
2639;DHT22;1329;51.384;7.122;2023-02-26T05:01:51;1.60;99.90
2639;DHT22;1329;51.384;7.122;2023-02-26T05:04:25;1.60;99.90
2639;DHT22;1329;51.384;7.122;2023-02-26T05:06:56;1.70;99.90
2639;DHT22;1329;51.384;7.122;2023-02-26T05:09:28;1.60;99.90
2639;DHT22;1329;51.384;7.122;2023-02-26T05:12:03;1.70;99.90
2639;DHT22;1329;51.384;7.122;2023-02-26T05:14:34;1.60;99.90
2639;DHT22;1329;51.384;7.122;2023-02-26T05:17:04;1.60;99.90
2639;DHT22;1329;51.384;7.122;2023-02-26T05:19:37;1.60;99.90
2639;DHT22;1329;51.384;7.122;2023-02-26T05:22:08;1.60;99.90
2639;DHT22;1329;51.384;7.122;2023-02-26T05:24:49;1.60;99.90
2639;DHT22;1329;51.384;7.122;2023-02-26T05:27:21;1.60;99.90
2639;DHT22;1329;51.384;7.122;2023-02-26T05:29:49;1.50;99.90
2639;DHT22;1329;51.384;7.122;2023-02-26T05:32:23;1.50;99.90
2639;DHT22;1329;51.384;7.122;2023-02-26T05:34:59;1.50;99.90
2639;DHT22;1329;51.384;7.122;2023-02-26T05:37:36;1.50;99.90
2639;DHT22;1329;51.384;7.122;2023-02-26T05:40:10;1.40;99.90
2639;DHT22;1329;51.384;7.122;2023-02-26T05:42:43;1.40;99.90
2639;DHT22;1329;51.384;7.122;2023-02-26T05:45:12;1.40;99.90
2639;DHT22;1329;51.384;7.122;2023-02-26T05:47:45;1.30;99.90
2639;DHT22;1329;51.384;7.122;2023-02-26T05:50:15;1.30;99.90
2639;DHT22;1329;51.384;7.122;2023-02-26T05:52:49;1.30;99.90
2639;DHT22;1329;51.384;7.122;2023-02-26T05:55:17;1.30;99.90
2639;DHT22;1329;51.384;7.122;2023-02-26T05:57:50;1.20;99.90
2639;DHT22;1329;51.384;7.122;2023-02-26T06:00:21;1.30;99.90
2639;DHT22;1329;51.384;7.122;2023-02-26T06:02:55;1.20;99.90
2639;DHT22;1329;51.384;7.122;2023-02-26T06:05:24;1.20;99.90
2639;DHT22;1329;51.384;7.122;2023-02-26T06:08:07;1.10;99.90
2639;DHT22;1329;51.384;7.122;2023-02-26T06:10:44;1.10;99.90
2639;DHT22;1329;51.384;7.122;2023-02-26T06:13:15;1.10;99.90
2639;DHT22;1329;51.384;7.122;2023-02-26T06:15:48;1.10;99.90
2639;DHT22;1329;51.384;7.122;2023-02-26T06:18:22;1.10;99.90
2639;DHT22;1329;51.384;7.122;2023-02-26T06:20:50;1.10;99.90
2639;DHT22;1329;51.384;7.122;2023-02-26T06:23:22;1.20;99.90
2639;DHT22;1329;51.384;7.122;2023-02-26T06:25:57;1.10;99.90
2639;DHT22;1329;51.384;7.122;2023-02-26T06:28:27;1.10;99.90
2639;DHT22;1329;51.384;7.122;2023-02-26T06:30:55;1.00;99.90
2639;DHT22;1329;51.384;7.122;2023-02-26T06:33:34;1.00;99.90
2639;DHT22;1329;51.384;7.122;2023-02-26T06:36:12;1.00;99.90
2639;DHT22;1329;51.384;7.122;2023-02-26T06:38:43;1.00;99.90
2639;DHT22;1329;51.384;7.122;2023-02-26T06:41:13;1.00;99.90
2639;DHT22;1329;51.384;7.122;2023-02-26T06:43:43;1.00;99.90
2639;DHT22;1329;51.384;7.122;2023-02-26T06:46:18;1.00;99.90
2639;DHT22;1329;51.384;7.122;2023-02-26T06:48:52;1.00;99.90
2639;DHT22;1329;51.384;7.122;2023-02-26T06:51:22;1.00;99.90
2639;DHT22;1329;51.384;7.122;2023-02-26T06:53:55;1.00;99.90
2639;DHT22;1329;51.384;7.122;2023-02-26T06:56:25;0.90;99.90
2639;DHT22;1329;51.384;7.122;2023-02-26T06:58:58;0.90;99.90
2639;DHT22;1329;51.384;7.122;2023-02-26T07:01:27;1.00;99.90
2639;DHT22;1329;51.384;7.122;2023-02-26T07:03:58;1.00;99.90
2639;DHT22;1329;51.384;7.122;2023-02-26T07:06:33;1.00;99.90
2639;DHT22;1329;51.384;7.122;2023-02-26T07:09:07;1.00;99.90
2639;DHT22;1329;51.384;7.122;2023-02-26T07:11:36;1.00;99.90
2639;DHT22;1329;51.384;7.122;2023-02-26T07:14:04;1.00;99.90
2639;DHT22;1329;51.384;7.122;2023-02-26T07:16:43;1.00;99.90
2639;DHT22;1329;51.384;7.122;2023-02-26T07:19:21;1.00;99.90
2639;DHT22;1329;51.384;7.122;2023-02-26T07:21:56;1.00;99.90
2639;DHT22;1329;51.384;7.122;2023-02-26T07:24:28;1.00;99.90
2639;DHT22;1329;51.384;7.122;2023-02-26T07:27:13;1.10;99.90
2639;DHT22;1329;51.384;7.122;2023-02-26T07:29:50;1.10;99.90
2639;DHT22;1329;51.384;7.122;2023-02-26T07:32:19;1.10;99.90
2639;DHT22;1329;51.384;7.122;2023-02-26T07:34:53;1.10;99.90
2639;DHT22;1329;51.384;7.122;2023-02-26T07:37:27;1.20;99.90
2639;DHT22;1329;51.384;7.122;2023-02-26T07:40:05;1.20;99.90
2639;DHT22;1329;51.384;7.122;2023-02-26T07:42:37;1.20;99.90
2639;DHT22;1329;51.384;7.122;2023-02-26T07:45:15;1.20;99.90
2639;DHT22;1329;51.384;7.122;2023-02-26T07:47:47;1.20;99.90
2639;DHT22;1329;51.384;7.122;2023-02-26T07:50:14;1.20;99.90
2639;DHT22;1329;51.384;7.122;2023-02-26T07:52:50;1.20;99.90
2639;DHT22;1329;51.384;7.122;2023-02-26T07:58:25;1.30;99.90
2639;DHT22;1329;51.384;7.122;2023-02-26T08:01:14;1.30;99.90
2639;DHT22;1329;51.384;7.122;2023-02-26T08:03:58;1.40;99.90
2639;DHT22;1329;51.384;7.122;2023-02-26T08:06:47;1.50;99.90
2639;DHT22;1329;51.384;7.122;2023-02-26T08:09:43;1.50;99.90
2639;DHT22;1329;51.384;7.122;2023-02-26T08:16:13;1.60;99.90
2639;DHT22;1329;51.384;7.122;2023-02-26T08:18:45;1.60;99.90
2639;DHT22;1329;51.384;7.122;2023-02-26T08:21:24;1.60;99.90
2639;DHT22;1329;51.384;7.122;2023-02-26T08:23:57;1.60;99.90
2639;DHT22;1329;51.384;7.122;2023-02-26T08:26:36;1.60;99.90
2639;DHT22;1329;51.384;7.122;2023-02-26T08:32:13;1.60;99.90
2639;DHT22;1329;51.384;7.122;2023-02-26T08:34:54;1.60;99.90
2639;DHT22;1329;51.384;7.122;2023-02-26T08:37:29;1.60;99.90
2639;DHT22;1329;51.384;7.122;2023-02-26T08:40:12;1.60;99.90
2639;DHT22;1329;51.384;7.122;2023-02-26T08:42:44;1.60;99.90
2639;DHT22;1329;51.384;7.122;2023-02-26T08:45:30;1.60;99.90
2639;DHT22;1329;51.384;7.122;2023-02-26T08:48:09;1.70;99.90
2639;DHT22;1329;51.384;7.122;2023-02-26T08:50:40;1.70;99.90
2639;DHT22;1329;51.384;7.122;2023-02-26T08:53:16;1.70;99.90
2639;DHT22;1329;51.384;7.122;2023-02-26T08:55:53;1.70;99.90
2639;DHT22;1329;51.384;7.122;2023-02-26T08:58:21;1.80;99.90
2639;DHT22;1329;51.384;7.122;2023-02-26T09:00:50;1.80;99.90
2639;DHT22;1329;51.384;7.122;2023-02-26T09:03:26;1.90;99.90
2639;DHT22;1329;51.384;7.122;2023-02-26T09:05:56;1.90;99.90
2639;DHT22;1329;51.384;7.122;2023-02-26T09:08:24;1.90;99.90
2639;DHT22;1329;51.384;7.122;2023-02-26T09:10:52;1.90;99.90
2639;DHT22;1329;51.384;7.122;2023-02-26T09:13:28;2.00;99.90
2639;DHT22;1329;51.384;7.122;2023-02-26T09:15:57;2.00;99.90
2639;DHT22;1329;51.384;7.122;2023-02-26T09:18:29;2.10;99.90
2639;DHT22;1329;51.384;7.122;2023-02-26T09:20:59;2.20;99.90
2639;DHT22;1329;51.384;7.122;2023-02-26T09:23:28;2.20;99.90
2639;DHT22;1329;51.384;7.122;2023-02-26T09:26:05;2.30;99.90
2639;DHT22;1329;51.384;7.122;2023-02-26T09:28:38;2.30;99.90
2639;DHT22;1329;51.384;7.122;2023-02-26T09:31:07;2.30;99.90
2639;DHT22;1329;51.384;7.122;2023-02-26T09:33:34;2.40;99.90
2639;DHT22;1329;51.384;7.122;2023-02-26T09:36:06;2.40;99.90
2639;DHT22;1329;51.384;7.122;2023-02-26T09:38:42;2.40;99.90
2639;DHT22;1329;51.384;7.122;2023-02-26T09:41:18;2.50;99.90
2639;DHT22;1329;51.384;7.122;2023-02-26T09:44:20;2.50;99.90
2639;DHT22;1329;51.384;7.122;2023-02-26T09:47:06;2.50;99.90
2639;DHT22;1329;51.384;7.122;2023-02-26T09:49:58;2.50;99.90
2639;DHT22;1329;51.384;7.122;2023-02-26T09:52:43;2.60;99.90
2639;DHT22;1329;51.384;7.122;2023-02-26T09:55:22;2.60;99.90
2639;DHT22;1329;51.384;7.122;2023-02-26T09:58:13;2.70;99.90
2639;DHT22;1329;51.384;7.122;2023-02-26T10:01:03;2.70;99.90
2639;DHT22;1329;51.384;7.122;2023-02-26T10:03:58;2.80;99.90
2639;DHT22;1329;51.384;7.122;2023-02-26T10:10:28;2.90;99.90
2639;DHT22;1329;51.384;7.122;2023-02-26T10:13:07;3.00;99.90
2639;DHT22;1329;51.384;7.122;2023-02-26T10:15:52;3.00;99.90
2639;DHT22;1329;51.384;7.122;2023-02-26T10:18:38;3.00;99.90
2639;DHT22;1329;51.384;7.122;2023-02-26T10:21:20;3.10;99.90
2639;DHT22;1329;51.384;7.122;2023-02-26T10:24:28;3.10;99.90
2639;DHT22;1329;51.384;7.122;2023-02-26T10:27:11;3.20;99.90
2639;DHT22;1329;51.384;7.122;2023-02-26T10:30:03;3.20;99.90
2639;DHT22;1329;51.384;7.122;2023-02-26T10:32:42;3.30;99.90
2639;DHT22;1329;51.384;7.122;2023-02-26T10:38:21;3.30;99.90
2639;DHT22;1329;51.384;7.122;2023-02-26T10:41:19;3.40;99.90
2639;DHT22;1329;51.384;7.122;2023-02-26T10:44:05;3.40;96.00
2639;DHT22;1329;51.384;7.122;2023-02-26T10:50:47;3.40;99.90
2639;DHT22;1329;51.384;7.122;2023-02-26T10:53:56;3.50;99.90
2639;DHT22;1329;51.384;7.122;2023-02-26T10:57:00;3.50;81.80
2639;DHT22;1329;51.384;7.122;2023-02-26T10:59:49;3.60;99.90
2639;DHT22;1329;51.384;7.122;2023-02-26T11:02:53;3.70;99.90
2639;DHT22;1329;51.384;7.122;2023-02-26T11:05:55;3.80;99.90
2639;DHT22;1329;51.384;7.122;2023-02-26T11:12:57;3.90;98.30
2639;DHT22;1329;51.384;7.122;2023-02-26T11:15:55;4.00;99.90
2639;DHT22;1329;51.384;7.122;2023-02-26T11:18:38;4.00;99.90
2639;DHT22;1329;51.384;7.122;2023-02-26T11:21:20;4.00;99.90
2639;DHT22;1329;51.384;7.122;2023-02-26T11:24:10;4.00;99.90
2639;DHT22;1329;51.384;7.122;2023-02-26T11:26:50;4.10;99.90
2639;DHT22;1329;51.384;7.122;2023-02-26T11:29:53;4.10;99.90
2639;DHT22;1329;51.384;7.122;2023-02-26T11:33:03;4.10;99.90
2639;DHT22;1329;51.384;7.122;2023-02-26T11:36:07;4.20;99.90
2639;DHT22;1329;51.384;7.122;2023-02-26T11:39:35;4.30;99.90
2639;DHT22;1329;51.384;7.122;2023-02-26T11:43:02;4.30;96.20
2639;DHT22;1329;51.384;7.122;2023-02-26T11:46:13;4.40;99.90
2639;DHT22;1329;51.384;7.122;2023-02-26T11:48:47;4.40;99.90
2639;DHT22;1329;51.384;7.122;2023-02-26T11:51:26;4.50;99.90
2639;DHT22;1329;51.384;7.122;2023-02-26T11:54:18;4.50;99.90
2639;DHT22;1329;51.384;7.122;2023-02-26T11:57:14;4.50;99.90
2639;DHT22;1329;51.384;7.122;2023-02-26T11:59:50;4.50;97.60
2639;DHT22;1329;51.384;7.122;2023-02-26T12:02:32;4.50;99.90
2639;DHT22;1329;51.384;7.122;2023-02-26T12:05:18;4.50;99.90
2639;DHT22;1329;51.384;7.122;2023-02-26T12:08:11;4.50;99.90
2639;DHT22;1329;51.384;7.122;2023-02-26T12:14:15;4.40;91.00
2639;DHT22;1329;51.384;7.122;2023-02-26T12:17:26;4.40;99.90
2639;DHT22;1329;51.384;7.122;2023-02-26T12:20:19;4.30;95.30
2639;DHT22;1329;51.384;7.122;2023-02-26T12:26:58;4.30;95.20
2639;DHT22;1329;51.384;7.122;2023-02-26T12:30:08;4.40;94.60
2639;DHT22;1329;51.384;7.122;2023-02-26T12:33:17;4.40;68.40
2639;DHT22;1329;51.384;7.122;2023-02-26T12:36:22;4.40;95.00
2639;DHT22;1329;51.384;7.122;2023-02-26T12:39:01;4.50;98.70
2639;DHT22;1329;51.384;7.122;2023-02-26T12:42:03;4.60;99.90
2639;DHT22;1329;51.384;7.122;2023-02-26T12:44:53;4.70;99.90
2639;DHT22;1329;51.384;7.122;2023-02-26T12:48:12;4.80;99.90
2639;DHT22;1329;51.384;7.122;2023-02-26T12:51:14;4.80;98.50
2639;DHT22;1329;51.384;7.122;2023-02-26T12:54:18;5.00;99.90
2639;DHT22;1329;51.384;7.122;2023-02-26T12:57:52;5.00;96.90
2639;DHT22;1329;51.384;7.122;2023-02-26T13:00:39;5.10;63.00
2639;DHT22;1329;51.384;7.122;2023-02-26T13:07:24;5.10;62.00
2639;DHT22;1329;51.384;7.122;2023-02-26T13:10:31;5.00;68.10
2639;DHT22;1329;51.384;7.122;2023-02-26T13:13:52;5.00;99.90
2639;DHT22;1329;51.384;7.122;2023-02-26T13:16:54;5.00;9.00
2639;DHT22;1329;51.384;7.122;2023-02-26T13:19:36;4.90;68.50
2639;DHT22;1329;51.384;7.122;2023-02-26T13:22:31;4.90;99.90
2639;DHT22;1329;51.384;7.122;2023-02-26T13:25:20;5.00;99.90
2639;DHT22;1329;51.384;7.122;2023-02-26T13:28:24;4.90;83.60
2639;DHT22;1329;51.384;7.122;2023-02-26T13:31:11;5.10;95.50
2639;DHT22;1329;51.384;7.122;2023-02-26T13:33:43;5.20;99.90
2639;DHT22;1329;51.384;7.122;2023-02-26T13:36:19;5.20;99.90
2639;DHT22;1329;51.384;7.122;2023-02-26T13:39:07;5.30;99.90
2639;DHT22;1329;51.384;7.122;2023-02-26T13:42:11;5.40;99.90
2639;DHT22;1329;51.384;7.122;2023-02-26T13:45:01;5.50;99.90
2639;DHT22;1329;51.384;7.122;2023-02-26T13:47:46;5.60;99.90
2639;DHT22;1329;51.384;7.122;2023-02-26T13:50:52;5.70;99.90
2639;DHT22;1329;51.384;7.122;2023-02-26T13:53:58;5.70;99.90
2639;DHT22;1329;51.384;7.122;2023-02-26T14:00:25;5.90;97.30
2639;DHT22;1329;51.384;7.122;2023-02-26T14:03:10;5.90;99.00
2639;DHT22;1329;51.384;7.122;2023-02-26T14:06:06;6.00;99.90
2639;DHT22;1329;51.384;7.122;2023-02-26T14:08:55;6.10;83.90
2639;DHT22;1329;51.384;7.122;2023-02-26T14:11:43;6.10;99.90
2639;DHT22;1329;51.384;7.122;2023-02-26T14:14:23;6.10;99.90
2639;DHT22;1329;51.384;7.122;2023-02-26T14:23:53;6.30;99.90
2639;DHT22;1329;51.384;7.122;2023-02-26T14:26:32;6.30;99.90
2639;DHT22;1329;51.384;7.122;2023-02-26T14:29:15;6.30;99.90
2639;DHT22;1329;51.384;7.122;2023-02-26T14:31:55;6.30;99.90
2639;DHT22;1329;51.384;7.122;2023-02-26T14:34:47;6.30;99.90
2639;DHT22;1329;51.384;7.122;2023-02-26T14:37:23;6.40;99.90
2639;DHT22;1329;51.384;7.122;2023-02-26T14:40:09;6.40;99.90
2639;DHT22;1329;51.384;7.122;2023-02-26T14:44:24;6.40;99.90
2639;DHT22;1329;51.384;7.122;2023-02-26T14:45:54;6.40;99.90
2639;DHT22;1329;51.384;7.122;2023-02-26T14:48:35;6.40;99.90
2639;DHT22;1329;51.384;7.122;2023-02-26T14:51:17;6.40;99.90
2639;DHT22;1329;51.384;7.122;2023-02-26T14:54:31;6.40;94.50
2639;DHT22;1329;51.384;7.122;2023-02-26T14:57:25;6.40;54.70
2639;DHT22;1329;51.384;7.122;2023-02-26T15:00:17;6.30;99.90
2639;DHT22;1329;51.384;7.122;2023-02-26T15:03:25;6.30;95.70
2639;DHT22;1329;51.384;7.122;2023-02-26T15:06:20;6.40;98.80
2639;DHT22;1329;51.384;7.122;2023-02-26T15:09:19;6.40;99.90
2639;DHT22;1329;51.384;7.122;2023-02-26T15:11:58;6.40;99.90
2639;DHT22;1329;51.384;7.122;2023-02-26T15:15:14;6.40;99.90
2639;DHT22;1329;51.384;7.122;2023-02-26T15:22:20;6.50;99.90
2639;DHT22;1329;51.384;7.122;2023-02-26T15:25:04;6.50;96.60
2639;DHT22;1329;51.384;7.122;2023-02-26T15:27:41;6.50;99.90
2639;DHT22;1329;51.384;7.122;2023-02-26T15:30:19;6.50;99.90
2639;DHT22;1329;51.384;7.122;2023-02-26T15:33:02;6.50;99.90
2639;DHT22;1329;51.384;7.122;2023-02-26T15:35:36;6.50;99.90
2639;DHT22;1329;51.384;7.122;2023-02-26T15:38:22;6.40;99.90
2639;DHT22;1329;51.384;7.122;2023-02-26T15:41:31;6.40;99.90
2639;DHT22;1329;51.384;7.122;2023-02-26T15:44:44;6.40;99.80
2639;DHT22;1329;51.384;7.122;2023-02-26T15:47:53;6.40;99.90
2639;DHT22;1329;51.384;7.122;2023-02-26T15:51:00;6.40;95.40
2639;DHT22;1329;51.384;7.122;2023-02-26T15:54:40;6.40;99.90
2639;DHT22;1329;51.384;7.122;2023-02-26T15:57:48;6.40;49.10
2639;DHT22;1329;51.384;7.122;2023-02-26T16:00:40;6.30;99.90
2639;DHT22;1329;51.384;7.122;2023-02-26T16:03:44;6.30;99.90
2639;DHT22;1329;51.384;7.122;2023-02-26T16:07:00;6.30;99.90
2639;DHT22;1329;51.384;7.122;2023-02-26T16:09:56;6.30;92.30
2639;DHT22;1329;51.384;7.122;2023-02-26T16:12:45;6.30;99.90
2639;DHT22;1329;51.384;7.122;2023-02-26T16:15:21;6.20;99.90
2639;DHT22;1329;51.384;7.122;2023-02-26T16:17:54;6.20;99.90
2639;DHT22;1329;51.384;7.122;2023-02-26T16:20:31;6.20;99.90
2639;DHT22;1329;51.384;7.122;2023-02-26T16:23:05;6.20;99.90
2639;DHT22;1329;51.384;7.122;2023-02-26T16:25:37;6.20;99.90
2639;DHT22;1329;51.384;7.122;2023-02-26T16:28:12;6.20;99.90
2639;DHT22;1329;51.384;7.122;2023-02-26T16:30:47;6.10;99.90
2639;DHT22;1329;51.384;7.122;2023-02-26T16:33:22;6.10;99.90
2639;DHT22;1329;51.384;7.122;2023-02-26T16:36:19;6.10;99.90
2639;DHT22;1329;51.384;7.122;2023-02-26T16:39:00;6.00;99.90
2639;DHT22;1329;51.384;7.122;2023-02-26T16:41:47;5.90;99.90
2639;DHT22;1329;51.384;7.122;2023-02-26T16:44:47;5.90;99.90
2639;DHT22;1329;51.384;7.122;2023-02-26T16:47:28;5.80;94.30
2639;DHT22;1329;51.384;7.122;2023-02-26T16:49:56;5.70;99.90
2639;DHT22;1329;51.384;7.122;2023-02-26T16:52:25;5.70;99.90
2639;DHT22;1329;51.384;7.122;2023-02-26T16:54:57;5.60;99.90
2639;DHT22;1329;51.384;7.122;2023-02-26T16:57:34;5.50;99.90
2639;DHT22;1329;51.384;7.122;2023-02-26T17:02:58;5.30;99.90
2639;DHT22;1329;51.384;7.122;2023-02-26T17:05:32;5.20;99.90
2639;DHT22;1329;51.384;7.122;2023-02-26T17:08:13;5.10;99.90
2639;DHT22;1329;51.384;7.122;2023-02-26T17:10:56;5.10;99.90
2639;DHT22;1329;51.384;7.122;2023-02-26T17:13:32;5.00;99.90
2639;DHT22;1329;51.384;7.122;2023-02-26T17:16:11;4.90;99.90
2639;DHT22;1329;51.384;7.122;2023-02-26T17:18:44;4.80;99.90
2639;DHT22;1329;51.384;7.122;2023-02-26T17:21:22;4.70;99.90
2639;DHT22;1329;51.384;7.122;2023-02-26T17:24:02;4.60;99.90
2639;DHT22;1329;51.384;7.122;2023-02-26T17:26:52;4.60;99.90
2639;DHT22;1329;51.384;7.122;2023-02-26T17:29:44;4.40;99.90
2639;DHT22;1329;51.384;7.122;2023-02-26T17:32:50;4.40;99.90
2639;DHT22;1329;51.384;7.122;2023-02-26T17:35:35;4.30;98.40
2639;DHT22;1329;51.384;7.122;2023-02-26T17:38:22;4.20;99.90
2639;DHT22;1329;51.384;7.122;2023-02-26T17:41:02;4.10;99.90
2639;DHT22;1329;51.384;7.122;2023-02-26T17:43:48;4.00;99.90
2639;DHT22;1329;51.384;7.122;2023-02-26T17:46:33;3.90;99.90
2639;DHT22;1329;51.384;7.122;2023-02-26T17:49:11;3.80;99.90
2639;DHT22;1329;51.384;7.122;2023-02-26T17:51:46;3.80;99.90
2639;DHT22;1329;51.384;7.122;2023-02-26T17:54:28;3.70;99.90
2639;DHT22;1329;51.384;7.122;2023-02-26T17:57:06;3.70;99.90
2639;DHT22;1329;51.384;7.122;2023-02-26T17:59:52;3.70;99.90
2639;DHT22;1329;51.384;7.122;2023-02-26T18:02:33;3.60;99.90
2639;DHT22;1329;51.384;7.122;2023-02-26T18:05:03;3.70;99.90
2639;DHT22;1329;51.384;7.122;2023-02-26T18:07:44;3.60;99.90
2639;DHT22;1329;51.384;7.122;2023-02-26T18:10:22;3.70;99.90
2639;DHT22;1329;51.384;7.122;2023-02-26T18:12:54;3.70;99.90
2639;DHT22;1329;51.384;7.122;2023-02-26T18:15:34;3.70;99.90
2639;DHT22;1329;51.384;7.122;2023-02-26T18:21:26;3.70;99.90
2639;DHT22;1329;51.384;7.122;2023-02-26T18:24:31;3.70;99.90
2639;DHT22;1329;51.384;7.122;2023-02-26T18:27:12;3.70;99.90
2639;DHT22;1329;51.384;7.122;2023-02-26T18:29:48;3.70;99.90
2639;DHT22;1329;51.384;7.122;2023-02-26T18:32:31;3.70;99.90
2639;DHT22;1329;51.384;7.122;2023-02-26T18:35:02;3.70;99.90
2639;DHT22;1329;51.384;7.122;2023-02-26T18:37:33;3.70;99.90
2639;DHT22;1329;51.384;7.122;2023-02-26T18:40:17;3.70;99.90
2639;DHT22;1329;51.384;7.122;2023-02-26T18:42:58;3.80;99.90
2639;DHT22;1329;51.384;7.122;2023-02-26T18:45:37;3.80;99.90
2639;DHT22;1329;51.384;7.122;2023-02-26T18:48:15;3.80;99.90
2639;DHT22;1329;51.384;7.122;2023-02-26T18:50:57;3.80;99.90
2639;DHT22;1329;51.384;7.122;2023-02-26T18:53:28;3.80;99.90
2639;DHT22;1329;51.384;7.122;2023-02-26T18:56:12;3.90;99.90
2639;DHT22;1329;51.384;7.122;2023-02-26T18:58:56;3.90;99.90
2639;DHT22;1329;51.384;7.122;2023-02-26T19:01:46;3.90;99.90
2639;DHT22;1329;51.384;7.122;2023-02-26T19:04:21;3.90;99.90
2639;DHT22;1329;51.384;7.122;2023-02-26T19:07:28;3.90;99.90
2639;DHT22;1329;51.384;7.122;2023-02-26T19:10:48;3.90;99.90
2639;DHT22;1329;51.384;7.122;2023-02-26T19:13:55;4.00;99.90
2639;DHT22;1329;51.384;7.122;2023-02-26T19:20:11;4.10;99.90
2639;DHT22;1329;51.384;7.122;2023-02-26T19:22:48;4.00;99.90
2639;DHT22;1329;51.384;7.122;2023-02-26T19:25:35;4.00;99.90